sensor_id;sensor_type;location;lat;lon;timestamp;temperature;humidity
78902;DHT22;70441;44.758;37.686;2023-08-20T00:00:17;27.86;36.51
78902;DHT22;70441;44.758;37.686;2023-08-20T00:01:23;27.84;36.59
78902;DHT22;70441;44.758;37.686;2023-08-20T00:02:26;27.86;36.64
78902;DHT22;70441;44.758;37.686;2023-08-20T00:03:29;27.84;36.65
78902;DHT22;70441;44.758;37.686;2023-08-20T00:04:31;27.82;36.77
78902;DHT22;70441;44.758;37.686;2023-08-20T00:05:34;27.79;37.01
78902;DHT22;70441;44.758;37.686;2023-08-20T00:06:36;27.76;37.06
78902;DHT22;70441;44.758;37.686;2023-08-20T00:07:39;27.73;36.98
78902;DHT22;70441;44.758;37.686;2023-08-20T00:08:40;27.70;37.07
78902;DHT22;70441;44.758;37.686;2023-08-20T00:09:44;27.69;37.07
78902;DHT22;70441;44.758;37.686;2023-08-20T00:10:45;27.65;37.21
78902;DHT22;70441;44.758;37.686;2023-08-20T00:11:47;27.62;37.55
78902;DHT22;70441;44.758;37.686;2023-08-20T00:12:49;27.56;39.29
78902;DHT22;70441;44.758;37.686;2023-08-20T00:13:51;27.55;42.73
78902;DHT22;70441;44.758;37.686;2023-08-20T00:15:01;27.48;43.70
78902;DHT22;70441;44.758;37.686;2023-08-20T00:16:09;27.45;46.21
78902;DHT22;70441;44.758;37.686;2023-08-20T00:17:11;27.38;48.86
78902;DHT22;70441;44.758;37.686;2023-08-20T00:18:14;27.32;51.60
78902;DHT22;70441;44.758;37.686;2023-08-20T00:19:16;27.30;53.50
78902;DHT22;70441;44.758;37.686;2023-08-20T00:20:18;27.25;53.97
78902;DHT22;70441;44.758;37.686;2023-08-20T00:21:19;27.24;56.93
78902;DHT22;70441;44.758;37.686;2023-08-20T00:22:25;27.21;57.81
78902;DHT22;70441;44.758;37.686;2023-08-20T00:23:27;27.15;55.66
78902;DHT22;70441;44.758;37.686;2023-08-20T00:24:29;27.12;56.42
78902;DHT22;70441;44.758;37.686;2023-08-20T00:25:31;27.07;59.34
78902;DHT22;70441;44.758;37.686;2023-08-20T00:26:33;27.06;58.57
78902;DHT22;70441;44.758;37.686;2023-08-20T00:27:34;27.06;60.22
78902;DHT22;70441;44.758;37.686;2023-08-20T00:28:36;26.99;60.60
78902;DHT22;70441;44.758;37.686;2023-08-20T00:29:40;26.97;60.29
78902;DHT22;70441;44.758;37.686;2023-08-20T00:30:41;26.91;60.82
78902;DHT22;70441;44.758;37.686;2023-08-20T00:31:43;26.89;60.34
78902;DHT22;70441;44.758;37.686;2023-08-20T00:32:45;26.84;61.42
78902;DHT22;70441;44.758;37.686;2023-08-20T00:33:47;26.82;63.22
78902;DHT22;70441;44.758;37.686;2023-08-20T00:34:48;26.76;63.74
78902;DHT22;70441;44.758;37.686;2023-08-20T00:35:50;26.76;64.23
78902;DHT22;70441;44.758;37.686;2023-08-20T00:36:52;26.75;64.51
78902;DHT22;70441;44.758;37.686;2023-08-20T00:37:53;26.73;68.33
78902;DHT22;70441;44.758;37.686;2023-08-20T00:38:55;26.72;69.05
78902;DHT22;70441;44.758;37.686;2023-08-20T00:39:59;26.69;67.65
78902;DHT22;70441;44.758;37.686;2023-08-20T00:41:00;26.66;66.62
78902;DHT22;70441;44.758;37.686;2023-08-20T00:42:02;26.65;67.68
78902;DHT22;70441;44.758;37.686;2023-08-20T00:43:04;26.59;68.19
78902;DHT22;70441;44.758;37.686;2023-08-20T00:44:06;26.51;68.52
78902;DHT22;70441;44.758;37.686;2023-08-20T00:45:08;26.44;68.55
78902;DHT22;70441;44.758;37.686;2023-08-20T00:46:10;26.40;68.21
78902;DHT22;70441;44.758;37.686;2023-08-20T00:47:13;26.38;68.37
78902;DHT22;70441;44.758;37.686;2023-08-20T00:48:15;26.31;68.89
78902;DHT22;70441;44.758;37.686;2023-08-20T00:49:17;26.28;68.03
78902;DHT22;70441;44.758;37.686;2023-08-20T00:50:19;26.23;67.83
78902;DHT22;70441;44.758;37.686;2023-08-20T00:51:22;26.21;68.54
78902;DHT22;70441;44.758;37.686;2023-08-20T00:52:24;26.16;69.09
78902;DHT22;70441;44.758;37.686;2023-08-20T00:53:26;26.17;70.59
78902;DHT22;70441;44.758;37.686;2023-08-20T00:54:28;26.12;71.48
78902;DHT22;70441;44.758;37.686;2023-08-20T00:55:30;26.12;72.95
78902;DHT22;70441;44.758;37.686;2023-08-20T00:56:32;26.13;75.41
78902;DHT22;70441;44.758;37.686;2023-08-20T00:57:34;26.16;74.85
78902;DHT22;70441;44.758;37.686;2023-08-20T00:58:36;26.16;74.57
78902;DHT22;70441;44.758;37.686;2023-08-20T00:59:38;26.17;74.15
78902;DHT22;70441;44.758;37.686;2023-08-20T01:00:39;26.16;74.47
78902;DHT22;70441;44.758;37.686;2023-08-20T01:01:41;26.18;74.81
78902;DHT22;70441;44.758;37.686;2023-08-20T01:02:43;26.18;74.40
78902;DHT22;70441;44.758;37.686;2023-08-20T01:03:45;26.18;74.50
78902;DHT22;70441;44.758;37.686;2023-08-20T01:04:47;26.16;74.71
78902;DHT22;70441;44.758;37.686;2023-08-20T01:05:53;26.13;75.16
78902;DHT22;70441;44.758;37.686;2023-08-20T01:08:31;26.12;75.38
78902;DHT22;70441;44.758;37.686;2023-08-20T01:09:48;26.10;75.40
78902;DHT22;70441;44.758;37.686;2023-08-20T01:11:19;26.10;75.95
78902;DHT22;70441;44.758;37.686;2023-08-20T01:12:24;26.08;75.59
78902;DHT22;70441;44.758;37.686;2023-08-20T01:13:26;26.08;75.90
78902;DHT22;70441;44.758;37.686;2023-08-20T01:14:28;26.08;75.82
78902;DHT22;70441;44.758;37.686;2023-08-20T01:15:29;26.08;75.74
78902;DHT22;70441;44.758;37.686;2023-08-20T01:16:31;26.06;75.24
78902;DHT22;70441;44.758;37.686;2023-08-20T01:17:33;26.06;74.98
78902;DHT22;70441;44.758;37.686;2023-08-20T01:18:34;26.07;74.70
78902;DHT22;70441;44.758;37.686;2023-08-20T01:19:36;26.04;74.17
78902;DHT22;70441;44.758;37.686;2023-08-20T01:20:42;26.07;73.52
78902;DHT22;70441;44.758;37.686;2023-08-20T01:28:44;26.00;71.82
78902;DHT22;70441;44.758;37.686;2023-08-20T01:29:46;26.00;72.19
78902;DHT22;70441;44.758;37.686;2023-08-20T01:30:48;26.00;72.29
78902;DHT22;70441;44.758;37.686;2023-08-20T01:31:51;25.97;72.99
78902;DHT22;70441;44.758;37.686;2023-08-20T01:32:54;25.93;72.94
78902;DHT22;70441;44.758;37.686;2023-08-20T01:33:57;25.89;72.90
78902;DHT22;70441;44.758;37.686;2023-08-20T01:34:58;25.86;72.52
78902;DHT22;70441;44.758;37.686;2023-08-20T01:36:00;25.81;72.31
78902;DHT22;70441;44.758;37.686;2023-08-20T01:37:02;25.81;72.22
78902;DHT22;70441;44.758;37.686;2023-08-20T01:38:04;25.79;71.99
78902;DHT22;70441;44.758;37.686;2023-08-20T01:39:05;25.75;71.84
78902;DHT22;70441;44.758;37.686;2023-08-20T01:40:08;25.73;71.92
78902;DHT22;70441;44.758;37.686;2023-08-20T01:41:12;25.69;72.21
78902;DHT22;70441;44.758;37.686;2023-08-20T01:42:14;25.68;72.31
78902;DHT22;70441;44.758;37.686;2023-08-20T01:43:16;25.66;72.61
78902;DHT22;70441;44.758;37.686;2023-08-20T01:44:17;25.64;73.10
78902;DHT22;70441;44.758;37.686;2023-08-20T01:45:19;25.64;72.87
78902;DHT22;70441;44.758;37.686;2023-08-20T01:46:23;25.62;72.59
78902;DHT22;70441;44.758;37.686;2023-08-20T01:47:26;25.62;72.34
78902;DHT22;70441;44.758;37.686;2023-08-20T01:48:27;25.61;72.80
78902;DHT22;70441;44.758;37.686;2023-08-20T01:49:29;25.58;73.84
78902;DHT22;70441;44.758;37.686;2023-08-20T01:50:31;25.55;74.17
78902;DHT22;70441;44.758;37.686;2023-08-20T01:51:33;25.58;74.59
78902;DHT22;70441;44.758;37.686;2023-08-20T01:52:34;25.55;74.05
78902;DHT22;70441;44.758;37.686;2023-08-20T01:53:36;25.55;74.53
78902;DHT22;70441;44.758;37.686;2023-08-20T01:54:37;25.54;74.56
78902;DHT22;70441;44.758;37.686;2023-08-20T01:55:39;25.51;75.15
78902;DHT22;70441;44.758;37.686;2023-08-20T01:56:41;25.51;76.03
78902;DHT22;70441;44.758;37.686;2023-08-20T01:57:42;25.54;77.88
78902;DHT22;70441;44.758;37.686;2023-08-20T01:58:44;25.51;76.47
78902;DHT22;70441;44.758;37.686;2023-08-20T01:59:47;25.54;78.01
78902;DHT22;70441;44.758;37.686;2023-08-20T02:00:49;25.54;76.65
78902;DHT22;70441;44.758;37.686;2023-08-20T02:01:51;25.54;78.07
78902;DHT22;70441;44.758;37.686;2023-08-20T02:02:52;25.57;78.50
78902;DHT22;70441;44.758;37.686;2023-08-20T02:03:54;25.54;77.97
78902;DHT22;70441;44.758;37.686;2023-08-20T02:04:56;25.52;78.33
78902;DHT22;70441;44.758;37.686;2023-08-20T02:05:57;25.48;78.00
78902;DHT22;70441;44.758;37.686;2023-08-20T02:07:00;25.48;78.12
78902;DHT22;70441;44.758;37.686;2023-08-20T02:08:03;25.51;78.82
78902;DHT22;70441;44.758;37.686;2023-08-20T02:09:07;25.49;79.24
78902;DHT22;70441;44.758;37.686;2023-08-20T02:10:08;25.47;79.45
78902;DHT22;70441;44.758;37.686;2023-08-20T02:11:10;25.45;79.33
78902;DHT22;70441;44.758;37.686;2023-08-20T02:12:12;25.45;79.89
78902;DHT22;70441;44.758;37.686;2023-08-20T02:13:14;25.44;80.16
78902;DHT22;70441;44.758;37.686;2023-08-20T02:14:15;25.42;79.74
78902;DHT22;70441;44.758;37.686;2023-08-20T02:15:17;25.42;79.57
78902;DHT22;70441;44.758;37.686;2023-08-20T02:16:20;25.42;80.16
78902;DHT22;70441;44.758;37.686;2023-08-20T02:17:21;25.41;80.65
78902;DHT22;70441;44.758;37.686;2023-08-20T02:18:24;25.37;80.82
78902;DHT22;70441;44.758;37.686;2023-08-20T02:19:26;25.35;81.70
78902;DHT22;70441;44.758;37.686;2023-08-20T02:20:28;25.37;81.12
78902;DHT22;70441;44.758;37.686;2023-08-20T02:21:30;25.34;80.35
78902;DHT22;70441;44.758;37.686;2023-08-20T02:22:32;25.28;80.36
78902;DHT22;70441;44.758;37.686;2023-08-20T02:23:35;25.24;79.99
78902;DHT22;70441;44.758;37.686;2023-08-20T02:24:37;25.20;79.91
78902;DHT22;70441;44.758;37.686;2023-08-20T02:25:38;25.19;80.31
78902;DHT22;70441;44.758;37.686;2023-08-20T02:26:40;25.17;79.70
78902;DHT22;70441;44.758;37.686;2023-08-20T02:27:42;25.16;79.80
78902;DHT22;70441;44.758;37.686;2023-08-20T02:28:46;25.13;80.02
78902;DHT22;70441;44.758;37.686;2023-08-20T02:29:48;25.13;80.04
78902;DHT22;70441;44.758;37.686;2023-08-20T02:30:50;25.12;80.15
78902;DHT22;70441;44.758;37.686;2023-08-20T02:31:52;25.12;79.62
78902;DHT22;70441;44.758;37.686;2023-08-20T02:32:53;25.12;79.77
78902;DHT22;70441;44.758;37.686;2023-08-20T02:33:55;25.10;80.00
78902;DHT22;70441;44.758;37.686;2023-08-20T02:34:57;25.14;79.87
78902;DHT22;70441;44.758;37.686;2023-08-20T02:36:02;25.07;80.65
78902;DHT22;70441;44.758;37.686;2023-08-20T02:37:04;25.05;80.13
78902;DHT22;70441;44.758;37.686;2023-08-20T02:38:06;25.03;80.05
78902;DHT22;70441;44.758;37.686;2023-08-20T02:39:08;25.05;80.18
78902;DHT22;70441;44.758;37.686;2023-08-20T02:40:10;24.99;80.94
78902;DHT22;70441;44.758;37.686;2023-08-20T02:41:13;24.99;81.54
78902;DHT22;70441;44.758;37.686;2023-08-20T02:42:16;24.96;81.49
78902;DHT22;70441;44.758;37.686;2023-08-20T02:43:19;24.92;81.55
78902;DHT22;70441;44.758;37.686;2023-08-20T02:44:21;24.93;81.92
78902;DHT22;70441;44.758;37.686;2023-08-20T02:45:23;24.92;82.44
78902;DHT22;70441;44.758;37.686;2023-08-20T02:46:26;24.92;82.85
78902;DHT22;70441;44.758;37.686;2023-08-20T02:47:28;24.90;82.82
78902;DHT22;70441;44.758;37.686;2023-08-20T02:48:30;24.92;82.99
78902;DHT22;70441;44.758;37.686;2023-08-20T02:49:32;24.95;83.15
78902;DHT22;70441;44.758;37.686;2023-08-20T02:50:33;24.93;82.82
78902;DHT22;70441;44.758;37.686;2023-08-20T02:51:35;24.92;83.08
78902;DHT22;70441;44.758;37.686;2023-08-20T02:52:37;24.96;83.08
78902;DHT22;70441;44.758;37.686;2023-08-20T02:53:39;24.95;83.11
78902;DHT22;70441;44.758;37.686;2023-08-20T02:54:40;24.96;83.02
78902;DHT22;70441;44.758;37.686;2023-08-20T02:55:42;24.96;83.23
78902;DHT22;70441;44.758;37.686;2023-08-20T02:56:44;24.96;83.01
78902;DHT22;70441;44.758;37.686;2023-08-20T02:57:46;24.96;82.88
78902;DHT22;70441;44.758;37.686;2023-08-20T02:58:47;24.99;82.99
78902;DHT22;70441;44.758;37.686;2023-08-20T02:59:50;24.99;83.07
78902;DHT22;70441;44.758;37.686;2023-08-20T03:00:52;25.06;83.10
78902;DHT22;70441;44.758;37.686;2023-08-20T03:01:54;25.06;82.83
78902;DHT22;70441;44.758;37.686;2023-08-20T03:02:56;25.02;82.47
78902;DHT22;70441;44.758;37.686;2023-08-20T03:03:58;25.05;82.51
78902;DHT22;70441;44.758;37.686;2023-08-20T03:04:59;25.06;82.36
78902;DHT22;70441;44.758;37.686;2023-08-20T03:06:01;25.06;82.28
78902;DHT22;70441;44.758;37.686;2023-08-20T03:07:03;25.07;82.20
78902;DHT22;70441;44.758;37.686;2023-08-20T03:08:06;25.09;81.61
78902;DHT22;70441;44.758;37.686;2023-08-20T03:09:08;25.07;80.36
78902;DHT22;70441;44.758;37.686;2023-08-20T03:10:11;25.09;79.48
78902;DHT22;70441;44.758;37.686;2023-08-20T03:11:13;25.13;77.93
78902;DHT22;70441;44.758;37.686;2023-08-20T03:12:14;25.13;77.41
78902;DHT22;70441;44.758;37.686;2023-08-20T03:13:16;25.17;76.57
78902;DHT22;70441;44.758;37.686;2023-08-20T03:14:18;25.19;76.06
78902;DHT22;70441;44.758;37.686;2023-08-20T03:15:19;25.23;75.90
78902;DHT22;70441;44.758;37.686;2023-08-20T03:16:21;25.24;75.86
78902;DHT22;70441;44.758;37.686;2023-08-20T03:17:23;25.30;75.77
78902;DHT22;70441;44.758;37.686;2023-08-20T03:18:25;25.35;75.93
78902;DHT22;70441;44.758;37.686;2023-08-20T03:19:33;25.40;75.87
78902;DHT22;70441;44.758;37.686;2023-08-20T03:20:36;25.48;76.01
78902;DHT22;70441;44.758;37.686;2023-08-20T03:21:38;25.55;76.11
78902;DHT22;70441;44.758;37.686;2023-08-20T03:22:40;25.61;76.15
78902;DHT22;70441;44.758;37.686;2023-08-20T03:23:41;25.65;76.02
78902;DHT22;70441;44.758;37.686;2023-08-20T03:24:43;25.69;75.16
78902;DHT22;70441;44.758;37.686;2023-08-20T03:25:45;25.75;74.99
78902;DHT22;70441;44.758;37.686;2023-08-20T03:26:46;25.76;73.38
78902;DHT22;70441;44.758;37.686;2023-08-20T03:27:51;25.83;71.09
78902;DHT22;70441;44.758;37.686;2023-08-20T03:28:53;25.89;67.81
78902;DHT22;70441;44.758;37.686;2023-08-20T03:29:55;25.94;66.91
78902;DHT22;70441;44.758;37.686;2023-08-20T03:31:00;26.00;67.86
78902;DHT22;70441;44.758;37.686;2023-08-20T03:32:04;26.04;65.81
78902;DHT22;70441;44.758;37.686;2023-08-20T03:33:06;26.08;65.39
78902;DHT22;70441;44.758;37.686;2023-08-20T03:34:10;26.17;64.38
78902;DHT22;70441;44.758;37.686;2023-08-20T03:35:12;26.28;63.81
78902;DHT22;70441;44.758;37.686;2023-08-20T03:36:14;26.38;62.73
78902;DHT22;70441;44.758;37.686;2023-08-20T03:37:16;26.51;62.30
78902;DHT22;70441;44.758;37.686;2023-08-20T03:38:18;26.59;61.19
78902;DHT22;70441;44.758;37.686;2023-08-20T03:39:20;26.60;59.63
78902;DHT22;70441;44.758;37.686;2023-08-20T03:40:21;26.62;58.27
78902;DHT22;70441;44.758;37.686;2023-08-20T03:41:23;26.68;57.65
78902;DHT22;70441;44.758;37.686;2023-08-20T03:42:25;26.73;55.09
78902;DHT22;70441;44.758;37.686;2023-08-20T03:43:26;26.78;54.90
78902;DHT22;70441;44.758;37.686;2023-08-20T03:44:28;26.79;52.29
78902;DHT22;70441;44.758;37.686;2023-08-20T03:45:31;26.83;51.88
78902;DHT22;70441;44.758;37.686;2023-08-20T03:46:33;26.90;51.57
78902;DHT22;70441;44.758;37.686;2023-08-20T03:47:34;26.94;50.13
78902;DHT22;70441;44.758;37.686;2023-08-20T03:48:37;26.96;50.20
78902;DHT22;70441;44.758;37.686;2023-08-20T03:49:39;26.94;47.99
78902;DHT22;70441;44.758;37.686;2023-08-20T03:50:42;27.03;48.46
78902;DHT22;70441;44.758;37.686;2023-08-20T03:51:43;27.08;48.47
78902;DHT22;70441;44.758;37.686;2023-08-20T03:52:45;27.11;48.26
78902;DHT22;70441;44.758;37.686;2023-08-20T03:53:47;27.21;48.07
78902;DHT22;70441;44.758;37.686;2023-08-20T03:54:48;27.31;47.56
78902;DHT22;70441;44.758;37.686;2023-08-20T03:55:51;27.46;47.19
78902;DHT22;70441;44.758;37.686;2023-08-20T03:56:53;27.52;45.36
78902;DHT22;70441;44.758;37.686;2023-08-20T03:57:55;27.52;44.74
78902;DHT22;70441;44.758;37.686;2023-08-20T03:58:56;27.60;45.07
78902;DHT22;70441;44.758;37.686;2023-08-20T03:59:58;27.70;44.18
78902;DHT22;70441;44.758;37.686;2023-08-20T04:01:00;27.79;43.67
78902;DHT22;70441;44.758;37.686;2023-08-20T04:02:01;27.90;43.38
78902;DHT22;70441;44.758;37.686;2023-08-20T04:03:04;27.91;42.25
78902;DHT22;70441;44.758;37.686;2023-08-20T04:04:05;28.02;42.64
78902;DHT22;70441;44.758;37.686;2023-08-20T04:05:07;28.12;41.56
78902;DHT22;70441;44.758;37.686;2023-08-20T04:06:09;28.15;41.39
78902;DHT22;70441;44.758;37.686;2023-08-20T04:07:11;28.25;41.90
78902;DHT22;70441;44.758;37.686;2023-08-20T04:08:13;28.41;41.51
78902;DHT22;70441;44.758;37.686;2023-08-20T04:09:15;28.50;40.48
78902;DHT22;70441;44.758;37.686;2023-08-20T04:10:18;28.55;39.82
78902;DHT22;70441;44.758;37.686;2023-08-20T04:11:19;28.57;40.44
78902;DHT22;70441;44.758;37.686;2023-08-20T04:12:21;28.75;39.95
78902;DHT22;70441;44.758;37.686;2023-08-20T04:13:22;28.98;39.25
78902;DHT22;70441;44.758;37.686;2023-08-20T04:14:24;29.05;39.94
78902;DHT22;70441;44.758;37.686;2023-08-20T04:15:27;29.18;38.39
78902;DHT22;70441;44.758;37.686;2023-08-20T04:16:29;29.37;38.19
78902;DHT22;70441;44.758;37.686;2023-08-20T04:17:31;29.61;37.78
78902;DHT22;70441;44.758;37.686;2023-08-20T04:18:32;29.77;38.33
78902;DHT22;70441;44.758;37.686;2023-08-20T04:19:34;30.12;38.57
78902;DHT22;70441;44.758;37.686;2023-08-20T04:20:36;30.34;36.22
78902;DHT22;70441;44.758;37.686;2023-08-20T04:21:38;30.41;35.80
78902;DHT22;70441;44.758;37.686;2023-08-20T04:22:40;30.47;36.52
78902;DHT22;70441;44.758;37.686;2023-08-20T04:23:42;30.67;36.23
78902;DHT22;70441;44.758;37.686;2023-08-20T04:24:44;30.82;35.71
78902;DHT22;70441;44.758;37.686;2023-08-20T04:25:46;30.85;34.46
78902;DHT22;70441;44.758;37.686;2023-08-20T04:26:50;30.96;34.59
78902;DHT22;70441;44.758;37.686;2023-08-20T04:27:58;31.23;34.21
78902;DHT22;70441;44.758;37.686;2023-08-20T04:29:00;31.44;34.62
78902;DHT22;70441;44.758;37.686;2023-08-20T04:30:02;31.45;34.35
78902;DHT22;70441;44.758;37.686;2023-08-20T04:31:03;31.67;33.17
78902;DHT22;70441;44.758;37.686;2023-08-20T04:32:19;31.88;32.62
78902;DHT22;70441;44.758;37.686;2023-08-20T04:33:20;31.96;32.19
78902;DHT22;70441;44.758;37.686;2023-08-20T04:34:22;32.08;32.04
78902;DHT22;70441;44.758;37.686;2023-08-20T04:35:27;32.33;32.20
78902;DHT22;70441;44.758;37.686;2023-08-20T04:36:29;32.05;32.04
78902;DHT22;70441;44.758;37.686;2023-08-20T04:37:30;31.75;32.84
78902;DHT22;70441;44.758;37.686;2023-08-20T04:38:32;31.62;31.79
78902;DHT22;70441;44.758;37.686;2023-08-20T04:39:36;31.81;32.32
78902;DHT22;70441;44.758;37.686;2023-08-20T04:40:37;32.03;31.72
78902;DHT22;70441;44.758;37.686;2023-08-20T04:41:40;32.27;31.43
78902;DHT22;70441;44.758;37.686;2023-08-20T04:42:47;32.27;32.08
78902;DHT22;70441;44.758;37.686;2023-08-20T04:43:50;32.26;32.78
78902;DHT22;70441;44.758;37.686;2023-08-20T04:44:52;32.19;32.02
78902;DHT22;70441;44.758;37.686;2023-08-20T04:45:54;31.90;32.82
78902;DHT22;70441;44.758;37.686;2023-08-20T04:46:57;32.02;32.48
78902;DHT22;70441;44.758;37.686;2023-08-20T04:48:00;32.27;30.22
78902;DHT22;70441;44.758;37.686;2023-08-20T04:49:02;32.17;32.07
78902;DHT22;70441;44.758;37.686;2023-08-20T04:50:04;31.90;32.10
78902;DHT22;70441;44.758;37.686;2023-08-20T04:51:09;31.76;32.55
78902;DHT22;70441;44.758;37.686;2023-08-20T04:52:12;31.84;33.06
78902;DHT22;70441;44.758;37.686;2023-08-20T04:53:13;32.17;32.27
78902;DHT22;70441;44.758;37.686;2023-08-20T04:54:17;32.55;31.97
78902;DHT22;70441;44.758;37.686;2023-08-20T04:55:19;32.95;30.67
78902;DHT22;70441;44.758;37.686;2023-08-20T04:56:21;33.18;29.81
78902;DHT22;70441;44.758;37.686;2023-08-20T04:57:22;33.20;29.96
78902;DHT22;70441;44.758;37.686;2023-08-20T04:58:24;32.93;30.24
78902;DHT22;70441;44.758;37.686;2023-08-20T04:59:26;32.86;30.94
78902;DHT22;70441;44.758;37.686;2023-08-20T05:00:48;32.96;30.20
78902;DHT22;70441;44.758;37.686;2023-08-20T05:01:50;32.89;30.90
78902;DHT22;70441;44.758;37.686;2023-08-20T05:02:54;33.07;31.20
78902;DHT22;70441;44.758;37.686;2023-08-20T05:03:57;33.30;30.89
78902;DHT22;70441;44.758;37.686;2023-08-20T05:04:59;33.17;30.59
78902;DHT22;70441;44.758;37.686;2023-08-20T05:06:01;32.87;31.00
78902;DHT22;70441;44.758;37.686;2023-08-20T05:07:04;32.90;30.86
78902;DHT22;70441;44.758;37.686;2023-08-20T05:08:06;32.93;31.18
78902;DHT22;70441;44.758;37.686;2023-08-20T05:09:07;32.92;30.46
78902;DHT22;70441;44.758;37.686;2023-08-20T05:10:09;32.80;30.50
78902;DHT22;70441;44.758;37.686;2023-08-20T05:11:10;32.71;30.61
78902;DHT22;70441;44.758;37.686;2023-08-20T05:12:12;32.57;30.92
78902;DHT22;70441;44.758;37.686;2023-08-20T05:13:14;32.52;30.99
78902;DHT22;70441;44.758;37.686;2023-08-20T05:14:15;32.57;30.57
78902;DHT22;70441;44.758;37.686;2023-08-20T05:15:17;32.71;30.94
78902;DHT22;70441;44.758;37.686;2023-08-20T05:16:19;33.10;30.63
78902;DHT22;70441;44.758;37.686;2023-08-20T05:17:21;33.55;29.73
78902;DHT22;70441;44.758;37.686;2023-08-20T05:18:22;33.90;29.20
78902;DHT22;70441;44.758;37.686;2023-08-20T05:19:24;34.10;29.37
78902;DHT22;70441;44.758;37.686;2023-08-20T05:20:26;34.27;28.88
78902;DHT22;70441;44.758;37.686;2023-08-20T05:21:29;34.56;28.70
78902;DHT22;70441;44.758;37.686;2023-08-20T05:22:31;34.56;28.66
78902;DHT22;70441;44.758;37.686;2023-08-20T05:23:32;34.72;28.21
78902;DHT22;70441;44.758;37.686;2023-08-20T05:24:34;34.93;28.45
78902;DHT22;70441;44.758;37.686;2023-08-20T05:25:36;35.01;27.58
78902;DHT22;70441;44.758;37.686;2023-08-20T05:26:38;35.18;27.59
78902;DHT22;70441;44.758;37.686;2023-08-20T05:27:39;35.38;27.33
78902;DHT22;70441;44.758;37.686;2023-08-20T05:28:42;35.62;26.98
78902;DHT22;70441;44.758;37.686;2023-08-20T05:29:43;35.83;26.95
78902;DHT22;70441;44.758;37.686;2023-08-20T05:30:54;35.94;25.36
78902;DHT22;70441;44.758;37.686;2023-08-20T05:31:57;35.93;26.48
78902;DHT22;70441;44.758;37.686;2023-08-20T05:32:58;36.04;25.68
78902;DHT22;70441;44.758;37.686;2023-08-20T05:34:01;36.11;25.13
78902;DHT22;70441;44.758;37.686;2023-08-20T05:35:04;36.08;25.65
78902;DHT22;70441;44.758;37.686;2023-08-20T05:36:06;36.11;24.85
78902;DHT22;70441;44.758;37.686;2023-08-20T05:37:08;36.04;25.08
78902;DHT22;70441;44.758;37.686;2023-08-20T05:38:10;36.01;25.32
78902;DHT22;70441;44.758;37.686;2023-08-20T05:39:11;36.04;25.32
78902;DHT22;70441;44.758;37.686;2023-08-20T05:40:13;36.02;25.32
78902;DHT22;70441;44.758;37.686;2023-08-20T05:41:15;36.05;25.68
78902;DHT22;70441;44.758;37.686;2023-08-20T05:42:16;36.08;24.91
78902;DHT22;70441;44.758;37.686;2023-08-20T05:43:25;36.01;24.86
78902;DHT22;70441;44.758;37.686;2023-08-20T05:44:27;35.97;25.53
78902;DHT22;70441;44.758;37.686;2023-08-20T05:45:29;35.86;24.82
78902;DHT22;70441;44.758;37.686;2023-08-20T05:46:31;35.80;24.87
78902;DHT22;70441;44.758;37.686;2023-08-20T05:47:33;35.69;25.54
78902;DHT22;70441;44.758;37.686;2023-08-20T05:48:35;35.70;25.54
78902;DHT22;70441;44.758;37.686;2023-08-20T05:49:37;35.70;25.71
78902;DHT22;70441;44.758;37.686;2023-08-20T05:50:39;35.63;24.95
78902;DHT22;70441;44.758;37.686;2023-08-20T05:51:41;35.48;25.03
78902;DHT22;70441;44.758;37.686;2023-08-20T05:52:43;35.41;24.81
78902;DHT22;70441;44.758;37.686;2023-08-20T05:53:45;35.30;25.08
78902;DHT22;70441;44.758;37.686;2023-08-20T05:54:46;35.19;24.88
78902;DHT22;70441;44.758;37.686;2023-08-20T05:55:48;35.11;25.18
78902;DHT22;70441;44.758;37.686;2023-08-20T05:56:50;35.08;25.19
78902;DHT22;70441;44.758;37.686;2023-08-20T05:57:52;34.92;25.54
78902;DHT22;70441;44.758;37.686;2023-08-20T05:58:53;34.89;25.58
78902;DHT22;70441;44.758;37.686;2023-08-20T05:59:55;34.86;25.41
78902;DHT22;70441;44.758;37.686;2023-08-20T06:00:57;34.89;25.48
78902;DHT22;70441;44.758;37.686;2023-08-20T06:02:01;34.92;25.59
78902;DHT22;70441;44.758;37.686;2023-08-20T06:03:03;34.83;25.75
78902;DHT22;70441;44.758;37.686;2023-08-20T06:04:05;34.83;25.80
78902;DHT22;70441;44.758;37.686;2023-08-20T06:05:06;34.92;25.98
78902;DHT22;70441;44.758;37.686;2023-08-20T06:06:09;34.90;25.48
78902;DHT22;70441;44.758;37.686;2023-08-20T06:07:10;34.92;25.54
78902;DHT22;70441;44.758;37.686;2023-08-20T06:08:12;34.94;25.61
78902;DHT22;70441;44.758;37.686;2023-08-20T06:09:13;34.84;25.97
78902;DHT22;70441;44.758;37.686;2023-08-20T06:10:15;34.80;25.70
78902;DHT22;70441;44.758;37.686;2023-08-20T06:11:17;34.83;25.74
78902;DHT22;70441;44.758;37.686;2023-08-20T06:12:19;34.87;25.90
78902;DHT22;70441;44.758;37.686;2023-08-20T06:13:21;34.92;25.60
78902;DHT22;70441;44.758;37.686;2023-08-20T06:14:22;34.96;26.01
78902;DHT22;70441;44.758;37.686;2023-08-20T06:15:24;34.92;26.02
78902;DHT22;70441;44.758;37.686;2023-08-20T06:16:25;34.90;25.89
78902;DHT22;70441;44.758;37.686;2023-08-20T06:17:27;34.82;25.57
78902;DHT22;70441;44.758;37.686;2023-08-20T06:18:29;34.73;25.94
78902;DHT22;70441;44.758;37.686;2023-08-20T06:19:30;34.80;25.81
78902;DHT22;70441;44.758;37.686;2023-08-20T06:20:32;34.79;26.29
78902;DHT22;70441;44.758;37.686;2023-08-20T06:21:34;34.84;26.17
78902;DHT22;70441;44.758;37.686;2023-08-20T06:22:35;34.89;26.06
78902;DHT22;70441;44.758;37.686;2023-08-20T06:23:37;34.97;25.79
78902;DHT22;70441;44.758;37.686;2023-08-20T06:24:39;35.03;25.88
78902;DHT22;70441;44.758;37.686;2023-08-20T06:25:40;35.06;25.94
78902;DHT22;70441;44.758;37.686;2023-08-20T06:26:42;35.11;25.25
78902;DHT22;70441;44.758;37.686;2023-08-20T06:27:45;35.13;25.42
78902;DHT22;70441;44.758;37.686;2023-08-20T06:28:46;35.11;25.98
78902;DHT22;70441;44.758;37.686;2023-08-20T06:29:48;35.10;25.84
78902;DHT22;70441;44.758;37.686;2023-08-20T06:30:50;35.15;25.76
78902;DHT22;70441;44.758;37.686;2023-08-20T06:31:52;35.17;25.30
78902;DHT22;70441;44.758;37.686;2023-08-20T06:32:53;35.17;26.10
78902;DHT22;70441;44.758;37.686;2023-08-20T06:33:55;35.31;25.89
78902;DHT22;70441;44.758;37.686;2023-08-20T06:34:56;35.32;25.96
78902;DHT22;70441;44.758;37.686;2023-08-20T06:35:58;35.35;26.39